Weather observations for the past three days for
Granbury, Granbury Municipal Airport
Metric (Imperial)
Date Time (cdt) Wind (kph) Vis. (km) Weather Sky Cond. Temperature (ºC) Relative Humidity Wind Chill (°C) Heat Index (°C) Pressure Precipitation (cm)
Air Dwpt 6 hour altimeter (cm) sea level (mb) 1 hr 3 hr 6 hr
Max. Min.
07 01:15 NE 13 16.09 A Few Clouds FEW023 13 11 88% 76.23 0.0
07 00:55 NE 9 16.09 Fair CLR 13 11 17 12.3 88% 76.23 0.0
07 00:35 NE 15 16.09 Fair CLR 13 10 82% 76.23 0.0
07 00:15 N 11 16.09 Fair CLR 13 11 88% 76.23 0.0
06 23:35 NE 11 16.09 Fair CLR 13 11 88% 76.23 0.0
06 23:15 NE 9 16.09 Fair CLR 14 11 82% 76.23 0.0
06 22:55 NE 13 16.09 Fair CLR 14 11 82% 76.23 0.0
06 22:35 NE 15 16.09 Fair CLR 14 11 82% 76.23 0.0
06 22:15 NE 15 16.09 A Few Clouds FEW034 14 11 82% 76.23 0.0
06 21:55 NE 17 16.09 Overcast OVC034 15 12 82% 76.2 0.0
06 21:35 N 4 16.09 Overcast OVC034 15 13 88% 76.2 0.0
06 20:55 SE 2 16.09 Mostly Cloudy BKN034 15 13 88% 76.12 0.0
06 20:35 SE 4 16.09 Partly Cloudy SCT034 15 13 88% 76.1 0.0
06 20:15 SE 4 16.09 A Few Clouds FEW034 16 13 83% 76.05 0.0
06 19:55 SE 6 16.09 Fair CLR 16 13 83% 76.02 0.0
06 19:35 SE 7 16.09 Fair CLR 16 13 83% 76.02 0.0
06 19:15 SE 7 16.09 Fair CLR 17 13 77% 76.02 0.0
06 18:55 SE 6 16.09 Fair CLR 17 13 18.2 12.5 77% 76 0.0
06 18:35 SE 7 16.09 A Few Clouds FEW090 17 13 77% 76 0.0
06 17:55 NE 7 16.09 Fair CLR 18 12 68% 75.97 0.0
06 17:35 E 9 16.09 A Few Clouds FEW065 FEW090 18 13 73% 75.97 0.0
06 17:15 NE 9 16.09 Mostly Cloudy SCT050 BKN065 BKN080 17 12 73% 75.97 0.0
06 16:55 NE 7 16.09 Overcast FEW040 OVC050 17 12 73% 76 0.0
06 16:35 NE 11 16.09 Overcast OVC038 17 11 68% 76 0.0
06 16:15 N 13 16.09 Overcast OVC038 17 12 73% 76 0.0
06 15:55 N 11 16.09 Mostly Cloudy BKN036 17 11 68% 76 0.0
06 15:35 NE 13 16.09 Overcast FEW021 OVC038 16 11 72% 76.02 0.0
06 15:15 NE 15 16.09 Mostly Cloudy FEW019 BKN038 BKN046 16 11 72% 76.02 0.0
06 14:55 N 13 16.09 Overcast SCT019 OVC035 16 11 72% 76.05 0.0
06 14:35 N 15 16.09 Overcast OVC019 16 11 72% 76.05 0.0
06 14:15 N 13 16.09 Overcast OVC015 14 10 77% 76.1 0.0
06 13:55 Vrbl 6 16.09 Overcast OVC015 14 10 77% 76.1 0.0
06 13:35 N 6 16.09 Overcast OVC015 13 10 82% 76.15 0.0
06 13:15 N 9 16.09 Overcast OVC013 13 10 82% 76.12 0.0
06 12:55 N 19 16.09 Overcast OVC013 13 10 12.9 10.6 82% 76.05 0.0
06 12:35 N 17 G 31 16.09 Overcast OVC011 13 10 82% 76.05 0.0
06 12:15 N 17 G 26 16.09 Overcast OVC011 12 10 88% 76.05 0.0
06 11:55 N 15 16.09 Overcast OVC011 12 10 88% 76.07 0.0
06 11:35 N 15 16.09 Overcast OVC011 12 10 88% 76.07 0.0
06 11:15 N 19 16.09 Overcast OVC011 12 10 88% 76.07 0.0
06 10:55 N 17 16.09 Overcast OVC009 12 10 88% 76.07 0.0
06 10:35 N 15 16.09 Overcast OVC011 12 10 88% 76.02 0.0
06 10:15 N 17 16.09 Light Rain BKN011 BKN016 BKN023 12 10 88% 76 0.0
06 09:55 N 7 16.09 Overcast BKN013 OVC023 11 10 94% 76.12 0.0
06 09:35 NW 17 8.05 Light Rain Fog/Mist BKN013 BKN041 BKN080 11 10 94% 76.12 0.0
06 09:15 NW 13 9.66 Light Rain Haze OVC013 11 9 88% 76.2 0.0
06 08:55 N 26 16.09 Overcast OVC013 11 9 88% 75.97 0.0
06 08:36 N 22 G 33 16.09 Overcast OVC015 12 9 82% 76.05 0.0
06 08:15 N 17 G 26 16.09 Overcast OVC015 12 9 82% 76.05 0.0
06 07:55 NW 19 16.09 Overcast OVC015 12 9 82% 75.97 0.0
06 07:35 N 19 G 28 16.09 Overcast OVC015 12 9 82% 75.95 0.0
06 07:16 N 26 16.09 Overcast OVC019 12 9 82% 75.92 0.0
06 06:55 N 20 G 30 16.09 Overcast OVC019 13 9 17.1 13.3 77% 75.9 0.0
06 06:35 NW 20 16.09 Overcast OVC019 14 9 72% 75.9 0.0
06 06:15 NW 17 16.09 Overcast OVC019 14 10 77% 75.87 0.0
06 05:55 N 11 16.09 Overcast OVC019 15 10 72% 75.84 0.0
06 05:35 NW 19 16.09 Overcast OVC019 15 11 77% 75.82 0.0
06 05:15 N 15 16.09 Overcast OVC021 15 11 77% 75.79 0.0
06 04:55 N 13 16.09 Overcast OVC021 15 11 77% 75.77 0.0
06 04:35 N 17 16.09 Overcast OVC021 15 11 77% 75.74 0.0
06 04:15 N 17 16.09 Overcast OVC021 15 12 82% 75.74 0.0
06 03:55 N 17 16.09 Overcast OVC023 16 12 77% 75.74 0.0
06 03:35 N 17 16.09 Overcast OVC025 16 12 77% 75.74 0.0
06 03:15 N 13 16.09 Overcast OVC025 16 12 77% 75.72 0.0
06 02:55 N 11 16.09 Overcast OVC025 16 12 77% 75.72 0.0
06 02:35 N 17 16.09 Overcast OVC025 16 12 77% 75.72 0.0
06 02:15 N 13 16.09 Overcast OVC025 16 12 77% 75.72 0.0
06 01:55 N 11 16.09 Partly Cloudy SCT027 16 12 77% 75.69 0.0
06 01:35 N 11 16.09 Fair CLR 16 12 77% 75.69 0.0
06 01:15 N 19 16.09 Fair CLR 16 12 77% 75.67 0.0
06 00:55 N 7 16.09 Partly Cloudy SCT028 17 12 29.3 16.9 73% 75.69 0.0
06 00:15 N 15 16.09 Overcast SCT030 OVC047 18 13 73% 75.69 0.0
05 23:55 N 17 16.09 Mostly Cloudy SCT032 SCT038 BKN047 18 13 73% 75.69 0.0
05 23:35 N 17 16.09 Mostly Cloudy FEW032 SCT038 BKN047 18 13 73% 75.67 0.0
05 23:15 N 15 16.09 Overcast OVC043 19 13 68% 75.67 0.0
05 22:55 N 15 16.09 Overcast SCT030 OVC045 19 14 73% 75.67 0.0
05 22:35 N 17 16.09 Overcast OVC030 20 14 69% 75.67 0.0
05 22:15 N 17 G 28 16.09 Overcast OVC030 20 14 69% 75.62 0.0
05 21:55 N 11 16.09 Mostly Cloudy BKN030 20 14 69% 75.57 0.0
05 21:36 N 19 0.00 Mostly Cloudy BKN030 21 15 69% 75.54 0.0
05 21:15 N 19 16.09 Mostly Cloudy BKN031 22 15 65% 75.49 0.0
05 20:55 N 17 16.09 Fair CLR 22 15 65% 75.49 0.0
05 20:35 N 15 16.09 Fair CLR 22 15 65% 75.44 0.0
05 20:16 N 20 G 28 16.09 Fair CLR 23 15 61% 75.41 0.0
05 19:55 NE 19 16.09 Fair CLR 24 16 61% 25 75.39 0.0
05 19:35 N 17 16.09 Fair CLR 25 16 57% 26 75.36 0.0
05 19:15 N 19 16.09 Fair CLR 26 17 58% 27 75.34 0.0
05 18:55 N 19 G 33 16.09 Fair CLR 28 18 34 29.4 55% 29 75.34 0.0
05 18:35 N 20 16.09 Fair CLR 30 17 46% 30 75.29 0.0
05 18:15 N 22 G 33 16.09 Fair CLR 32 18 43% 33 75.26 0.0
05 17:55 S 11 16.09 Fair CLR 34 17 36% 35 75.23 0.0
05 17:35 S 13 16.09 Fair CLR 33 16 36% 33 75.23 0.0
05 17:15 SW 9 G 26 16.09 Fair CLR 34 16 34% 34 75.23 0.0
05 16:55 Vrbl 7 16.09 Fair CLR 33 16 36% 33 75.21 0.0
05 16:35 SW 7 16.09 Fair CLR 33 16 36% 33 75.23 0.0
05 16:15 Vrbl 9 16.09 Fair CLR 34 16 34% 34 75.26 0.0
05 15:55 Vrbl 11 16.09 Fair CLR 33 17 38% 33 75.26 0.0
05 15:35 W 13 16.09 Fair CLR 33 17 38% 33 75.31 0.0
05 15:15 SW 15 16.09 Fair CLR 32 18 43% 33 75.29 0.0
05 14:55 W 13 16.09 Fair CLR 32 18 43% 33 75.31 0.0
05 14:35 SW 17 16.09 Fair CLR 32 18 43% 33 75.34 0.0
05 14:15 SW 20 16.09 Fair CLR 32 18 43% 33 75.34 0.0
05 13:55 SW 22 G 28 16.09 Fair CLR 31 18 46% 32 75.34 0.0
05 13:35 SW 13 G 28 16.09 Fair CLR 31 18 46% 32 75.36 0.0
05 13:15 SW 19 16.09 Fair CLR 31 19 49% 32 75.36 0.0
05 12:55 SW 20 G 30 16.09 Fair CLR 30 19 29.8 20.1 52% 31 75.36 0.0
05 12:35 SW 20 16.09 Fair CLR 29 19 55% 30 75.39 0.0
05 12:15 SW 19 16.09 Fair CLR 28 19 58% 29 75.39 0.0
05 11:55 S 26 16.09 Fair CLR 28 19 58% 29 75.36 0.0
05 11:35 SW 28 16.09 Fair CLR 27 20 66% 29 75.36 0.0
05 11:15 SW 26 16.09 Fair CLR 27 20 66% 29 75.36 0.0
05 10:35 S 30 16.09 Fair CLR 26 20 70% 27 75.36 0.0
05 10:15 SW 26 G 33 16.09 Fair CLR 26 20 70% 27 75.36 0.0
05 09:55 SW 24 G 37 16.09 Fair CLR 25 19 69% 26 75.39 0.0
05 09:35 SW 24 G 33 16.09 Fair CLR 24 19 74% 25 75.39 0.0
05 09:15 SW 24 G 33 16.09 Fair CLR 24 19 74% 25 75.39 0.0
05 08:55 SW 24 G 35 16.09 Fair CLR 23 19 78% 75.36 0.0
05 08:35 S 17 16.09 Fair CLR 22 19 83% 75.36 0.0
05 08:15 S 17 G 31 16.09 Fair CLR 22 19 83% 75.34 0.0
05 07:55 S 11 16.09 Fair CLR 21 19 88% 75.34 0.0
05 07:35 S 9 16.09 Fair CLR 21 18 83% 75.34 0.0
05 07:15 S 19 16.09 Fair CLR 20 18 88% 75.29 0.0
05 06:55 S 19 G 30 16.09 Fair CLR 20 18 23.6 20.1 88% 75.29 0.0
05 06:35 S 19 G 39 16.09 Fair CLR 20 18 88% 75.26 0.0
05 06:15 S 20 G 33 16.09 Fair CLR 20 18 88% 75.26 0.0
05 05:55 S 22 G 30 16.09 Fair CLR 20 18 88% 75.26 0.0
05 05:35 S 22 G 30 16.09 Fair CLR 20 18 88% 75.26 0.0
05 05:15 S 19 16.09 Fair CLR 21 18 83% 75.26 0.0
05 04:55 S 26 G 35 16.09 Fair CLR 21 18 83% 75.26 0.0
05 04:35 S 22 G 33 16.09 Fair CLR 21 18 83% 75.29 0.0
05 04:15 S 20 16.09 Fair CLR 21 18 83% 75.31 0.0
05 03:55 S 20 16.09 Fair CLR 21 18 83% 75.31 0.0
05 03:35 S 20 G 33 16.09 Fair CLR 21 18 83% 75.31 0.0
05 03:15 S 22 G 35 16.09 Fair CLR 22 18 78% 75.31 0.0
05 02:55 S 28 G 35 16.09 Fair CLR 22 18 78% 75.31 0.0
05 02:35 S 26 G 35 16.09 Fair CLR 22 18 78% 75.31 0.0
05 02:15 S 30 G 41 16.09 Fair CLR 22 17 73% 75.34 0.0
05 01:55 S 33 G 44 16.09 Fair and Breezy CLR 23 17 69% 75.34 0.0
05 01:35 S 37 G 50 16.09 Fair and Breezy CLR 23 17 69% 75.36 0.0
05 01:15 S 33 G 44 16.09 Fair and Breezy CLR 23 17 69% 75.39 0.0
05 00:55 S 35 G 46 16.09 Fair and Breezy CLR 23 17 27.1 23.4 69% 75.36 0.0
05 00:35 S 33 G 48 16.09 Fair and Breezy CLR 24 17 65% 25 75.39 0.0
05 00:15 S 35 G 46 16.09 Fair and Breezy CLR 24 17 65% 25 75.36 0.0
04 23:55 S 33 G 46 16.09 Fair and Breezy CLR 24 17 65% 25 75.39 0.0
04 23:35 S 35 G 46 16.09 Fair and Breezy CLR 24 17 65% 25 75.39 0.0
04 23:15 S 26 G 41 16.09 Fair CLR 24 17 65% 25 75.39 0.0
04 22:55 S 26 G 35 16.09 Fair CLR 24 17 65% 25 75.39 0.0
04 22:35 S 20 G 39 16.09 Fair CLR 24 17 65% 25 75.41 0.0
04 22:15 S 22 G 31 16.09 Fair CLR 25 17 61% 26 75.39 0.0
04 21:55 S 22 G 31 16.09 Fair CLR 25 17 61% 26 75.41 0.0
04 21:35 S 22 16.09 Fair CLR 25 17 61% 26 75.39 0.0
04 21:15 S 22 16.09 Fair CLR 25 17 61% 26 75.39 0.0
04 20:55 S 17 16.09 Fair CLR 25 17 61% 26 75.36 0.0
04 20:35 S 20 16.09 Fair CLR 25 18 65% 26 75.36 0.0
04 20:15 SE 17 16.09 Fair CLR 26 17 58% 27 75.36 0.0
04 19:55 S 17 16.09 Fair CLR 26 17 58% 27 75.36 0.0
04 19:35 S 20 G 31 16.09 Fair CLR 26 17 58% 27 75.39 0.0
04 19:15 S 22 G 31 16.09 Fair CLR 27 17 54% 28 75.39 0.0
04 18:55 S 22 G 35 16.09 Fair CLR 27 17 29.4 26.4 54% 28 75.41 0.0
04 18:35 S 24 G 39 16.09 Fair CLR 27 17 54% 28 75.41 0.0
04 18:15 S 28 G 43 16.09 Fair CLR 28 17 51% 29 75.44 0.0
04 17:55 S 31 G 41 16.09 Fair CLR 28 17 51% 29 75.44 0.0
04 17:35 S 30 G 44 16.09 Fair CLR 28 17 51% 29 75.44 0.0
04 17:15 S 33 G 43 16.09 Fair and Breezy CLR 29 17 48% 29 75.46 0.0
04 16:55 S 31 G 44 16.09 Fair CLR 29 17 48% 29 75.46 0.0
04 16:35 S 28 G 43 16.09 Fair CLR 29 17 48% 29 75.49 0.0
04 16:15 S 33 G 46 16.09 Fair and Breezy CLR 28 17 51% 29 75.51 0.0
04 15:55 S 28 G 43 16.09 Fair CLR 29 17 48% 29 75.54 0.0
04 15:35 S 24 G 41 16.09 Fair CLR 29 17 48% 29 75.57 0.0
04 15:15 S 26 G 37 16.09 Fair CLR 29 17 48% 29 75.59 0.0
04 14:55 S 30 G 41 16.09 Fair CLR 29 17 48% 29 75.62 0.0
04 14:35 S 22 G 41 16.09 Fair CLR 29 17 48% 29 75.67 0.0
04 14:15 S 30 G 39 16.09 Fair CLR 28 16 48% 28 75.67 0.0
04 13:55 S 33 G 41 16.09 Fair and Breezy CLR 28 16 48% 28 75.69 0.0
04 13:35 S 26 G 41 16.09 Fair CLR 27 16 51% 27 75.72 0.0
04 13:15 S 30 G 39 16.09 Fair CLR 27 16 51% 27 75.74 0.0
04 12:55 S 31 G 39 16.09 Fair CLR 27 15 26.4 14.2 48% 27 75.77 0.0
04 12:35 S 30 G 43 16.09 Fair CLR 26 15 51% 27 75.77 0.0
04 12:15 S 24 G 39 16.09 Fair CLR 25 15 54% 26 75.79 0.0
04 11:55 S 30 G 44 16.09 Fair CLR 25 15 54% 26 75.82 0.0
04 11:35 S 33 G 46 16.09 Fair and Breezy CLR 24 15 57% 25 75.84 0.0
04 11:15 S 30 G 46 16.09 Fair CLR 24 15 57% 25 75.87 0.0
04 10:55 S 28 G 37 16.09 A Few Clouds FEW031 23 15 61% 75.9 0.0
04 10:35 S 30 G 39 16.09 A Few Clouds FEW030 22 14 61% 75.92 0.0
04 10:15 S 35 G 41 16.09 Fair and Breezy CLR 22 14 61% 75.92 0.0
04 09:55 S 30 G 46 16.09 Fair CLR 21 13 60% 75.92 0.0
04 09:35 S 35 G 44 16.09 Fair and Breezy CLR 21 13 60% 75.92 0.0
04 09:15 S 31 G 39 16.09 Fair CLR 20 13 64% 75.92 0.0
04 08:55 S 26 G 39 16.09 Fair CLR 19 13 68% 75.92 0.0
04 08:35 S 22 16.09 Fair CLR 18 13 73% 75.95 0.0
04 08:15 S 20 G 30 16.09 Fair CLR 18 13 73% 75.95 0.0
04 07:55 S 19 16.09 Fair CLR 17 13 77% 75.92 0.0
04 07:35 SE 9 16.09 Fair CLR 15 12 82% 75.95 0.0
04 06:55 SE 7 16.09 Fair CLR 15 12 17.1 14.8 82% 75.92 0.0
04 06:35 SE 11 16.09 Fair CLR 15 11 77% 75.92 0.0
04 06:15 S 15 16.09 Fair CLR 15 11 77% 75.9 0.0
04 05:55 S 15 16.09 Fair CLR 16 11 72% 75.92 0.0
04 05:35 S 13 16.09 Fair CLR 15 11 77% 75.95 0.0
04 05:15 SE 11 16.09 Fair CLR 15 11 77% 75.95 0.0
04 04:55 SE 13 16.09 Fair CLR 16 11 72% 75.95 0.0
04 04:35 S 13 16.09 Fair CLR 16 10 68% 75.97 0.0
04 04:15 S 15 16.09 Fair CLR 16 10 68% 75.97 0.0
04 03:55 S 13 16.09 Fair CLR 16 10 68% 75.97 0.0
04 03:35 S 19 16.09 Fair CLR 16 10 68% 75.97 0.0
04 03:15 S 20 G 31 16.09 Fair CLR 16 10 68% 76 0.0
04 02:56 S 20 16.09 Fair CLR 17 9 60% 76 0.0
04 02:35 S 19 16.09 Fair CLR 17 10 64% 76.02 0.0
04 02:15 S 15 16.09 Fair CLR 16 10 68% 76.02 0.0
04 01:55 S 17 16.09 Fair CLR 17 9 60% 76.05 0.0
04 01:35 S 19 16.09 Fair CLR 17 9 60% 76.05 0.0
Date Time (cdt) Wind (kph) Vis. (km) Weather Sky Cond. Air Dwpt Max. Min. Relative Humidity Wind Chill (°C) Heat Index (°C) altimeter (cm) sea level (mb) 1 hr 3 hr 6 hr
6 hour
Temperature (ºC) Pressure Precipitation (cm)